sensor_id;sensor_type;location;lat;lon;timestamp;P1;durP1;ratioP1;P2;durP2;ratioP2
25439;SDS011;13365;52.208;5.488;2023-08-07T00:01:09;4.70;;;0.85;;
25439;SDS011;13365;52.208;5.488;2023-08-07T00:03:35;1.65;;;0.70;;
25439;SDS011;13365;52.208;5.488;2023-08-07T00:06:01;1.85;;;0.90;;
25439;SDS011;13365;52.208;5.488;2023-08-07T00:08:26;8.52;;;1.40;;
25439;SDS011;13365;52.208;5.488;2023-08-07T00:10:52;9.55;;;1.20;;
25439;SDS011;13365;52.208;5.488;2023-08-07T00:13:18;7.20;;;1.00;;
25439;SDS011;13365;52.208;5.488;2023-08-07T00:15:44;7.88;;;1.35;;
25439;SDS011;13365;52.208;5.488;2023-08-07T00:18:09;7.72;;;1.27;;
25439;SDS011;13365;52.208;5.488;2023-08-07T00:20:35;6.10;;;1.10;;
25439;SDS011;13365;52.208;5.488;2023-08-07T00:23:00;4.47;;;1.13;;
25439;SDS011;13365;52.208;5.488;2023-08-07T00:25:26;3.38;;;0.93;;
25439;SDS011;13365;52.208;5.488;2023-08-07T00:27:52;2.70;;;0.77;;
25439;SDS011;13365;52.208;5.488;2023-08-07T00:30:17;6.00;;;1.20;;
25439;SDS011;13365;52.208;5.488;2023-08-07T00:32:43;8.95;;;1.38;;
25439;SDS011;13365;52.208;5.488;2023-08-07T00:35:09;4.45;;;0.98;;
25439;SDS011;13365;52.208;5.488;2023-08-07T00:37:34;4.38;;;1.50;;
25439;SDS011;13365;52.208;5.488;2023-08-07T00:40:00;6.75;;;1.30;;
25439;SDS011;13365;52.208;5.488;2023-08-07T00:42:25;11.30;;;1.92;;
25439;SDS011;13365;52.208;5.488;2023-08-07T00:44:51;2.65;;;1.30;;
25439;SDS011;13365;52.208;5.488;2023-08-07T00:47:16;9.57;;;1.10;;
25439;SDS011;13365;52.208;5.488;2023-08-07T00:49:42;8.95;;;1.77;;
25439;SDS011;13365;52.208;5.488;2023-08-07T00:52:08;9.65;;;2.42;;
25439;SDS011;13365;52.208;5.488;2023-08-07T00:54:36;6.45;;;1.90;;
25439;SDS011;13365;52.208;5.488;2023-08-07T00:57:12;8.07;;;1.40;;
25439;SDS011;13365;52.208;5.488;2023-08-07T00:59:40;11.07;;;1.48;;
25439;SDS011;13365;52.208;5.488;2023-08-07T01:02:06;8.63;;;2.25;;
25439;SDS011;13365;52.208;5.488;2023-08-07T01:04:32;7.95;;;1.67;;
25439;SDS011;13365;52.208;5.488;2023-08-07T01:06:58;8.10;;;1.40;;
25439;SDS011;13365;52.208;5.488;2023-08-07T01:09:23;11.32;;;1.95;;
25439;SDS011;13365;52.208;5.488;2023-08-07T01:11:50;10.48;;;1.27;;
25439;SDS011;13365;52.208;5.488;2023-08-07T01:14:33;8.63;;;1.88;;
25439;SDS011;13365;52.208;5.488;2023-08-07T01:17:06;7.80;;;1.67;;
25439;SDS011;13365;52.208;5.488;2023-08-07T01:19:35;5.60;;;1.45;;
25439;SDS011;13365;52.208;5.488;2023-08-07T01:22:05;10.00;;;1.70;;
25439;SDS011;13365;52.208;5.488;2023-08-07T01:24:42;9.68;;;1.98;;
25439;SDS011;13365;52.208;5.488;2023-08-07T01:27:19;8.65;;;2.25;;
25439;SDS011;13365;52.208;5.488;2023-08-07T01:30:02;6.10;;;1.83;;
25439;SDS011;13365;52.208;5.488;2023-08-07T01:35:36;5.15;;;1.45;;
25439;SDS011;13365;52.208;5.488;2023-08-07T01:38:12;6.72;;;1.48;;
25439;SDS011;13365;52.208;5.488;2023-08-07T01:40:39;10.50;;;1.52;;
25439;SDS011;13365;52.208;5.488;2023-08-07T01:43:06;8.93;;;1.60;;
25439;SDS011;13365;52.208;5.488;2023-08-07T01:45:32;6.25;;;1.70;;
25439;SDS011;13365;52.208;5.488;2023-08-07T01:47:58;7.07;;;1.75;;
25439;SDS011;13365;52.208;5.488;2023-08-07T01:50:24;11.45;;;2.33;;
25439;SDS011;13365;52.208;5.488;2023-08-07T01:52:50;9.25;;;1.60;;
25439;SDS011;13365;52.208;5.488;2023-08-07T01:55:16;8.30;;;1.45;;
25439;SDS011;13365;52.208;5.488;2023-08-07T01:57:43;7.97;;;1.52;;
25439;SDS011;13365;52.208;5.488;2023-08-07T02:00:09;6.22;;;1.38;;
25439;SDS011;13365;52.208;5.488;2023-08-07T02:02:35;6.35;;;1.65;;
25439;SDS011;13365;52.208;5.488;2023-08-07T02:05:01;5.82;;;1.42;;
25439;SDS011;13365;52.208;5.488;2023-08-07T02:07:28;6.70;;;1.30;;
25439;SDS011;13365;52.208;5.488;2023-08-07T02:09:53;5.40;;;1.45;;
25439;SDS011;13365;52.208;5.488;2023-08-07T02:12:19;9.40;;;1.48;;
25439;SDS011;13365;52.208;5.488;2023-08-07T02:14:44;7.05;;;1.42;;
25439;SDS011;13365;52.208;5.488;2023-08-07T02:17:10;4.57;;;1.05;;
25439;SDS011;13365;52.208;5.488;2023-08-07T02:19:36;11.80;;;1.63;;
25439;SDS011;13365;52.208;5.488;2023-08-07T02:22:02;7.63;;;1.60;;
25439;SDS011;13365;52.208;5.488;2023-08-07T02:24:28;10.77;;;2.83;;
25439;SDS011;13365;52.208;5.488;2023-08-07T02:26:53;5.45;;;1.80;;
25439;SDS011;13365;52.208;5.488;2023-08-07T02:29:19;7.85;;;1.65;;
25439;SDS011;13365;52.208;5.488;2023-08-07T02:31:44;10.57;;;1.98;;
25439;SDS011;13365;52.208;5.488;2023-08-07T02:34:10;11.88;;;2.20;;
25439;SDS011;13365;52.208;5.488;2023-08-07T02:36:35;4.95;;;1.33;;
25439;SDS011;13365;52.208;5.488;2023-08-07T02:39:01;3.92;;;1.40;;
25439;SDS011;13365;52.208;5.488;2023-08-07T02:41:29;4.45;;;1.30;;
25439;SDS011;13365;52.208;5.488;2023-08-07T02:43:56;6.60;;;1.35;;
25439;SDS011;13365;52.208;5.488;2023-08-07T02:46:23;2.85;;;1.00;;
25439;SDS011;13365;52.208;5.488;2023-08-07T02:48:49;4.32;;;1.10;;
25439;SDS011;13365;52.208;5.488;2023-08-07T02:51:19;6.65;;;1.38;;
25439;SDS011;13365;52.208;5.488;2023-08-07T02:53:45;6.15;;;1.27;;
25439;SDS011;13365;52.208;5.488;2023-08-07T02:56:11;12.43;;;1.55;;
25439;SDS011;13365;52.208;5.488;2023-08-07T02:58:36;7.03;;;1.58;;
25439;SDS011;13365;52.208;5.488;2023-08-07T03:01:05;8.95;;;1.17;;
25439;SDS011;13365;52.208;5.488;2023-08-07T03:03:31;3.03;;;1.05;;
25439;SDS011;13365;52.208;5.488;2023-08-07T03:06:00;6.57;;;1.25;;
25439;SDS011;13365;52.208;5.488;2023-08-07T03:08:26;8.48;;;1.95;;
25439;SDS011;13365;52.208;5.488;2023-08-07T03:10:52;4.60;;;1.42;;
25439;SDS011;13365;52.208;5.488;2023-08-07T03:13:20;4.20;;;1.02;;
25439;SDS011;13365;52.208;5.488;2023-08-07T03:15:46;5.65;;;1.13;;
25439;SDS011;13365;52.208;5.488;2023-08-07T03:18:14;1.83;;;0.70;;
25439;SDS011;13365;52.208;5.488;2023-08-07T03:20:39;2.88;;;0.95;;
25439;SDS011;13365;52.208;5.488;2023-08-07T03:23:05;3.88;;;0.57;;
25439;SDS011;13365;52.208;5.488;2023-08-07T03:25:30;11.23;;;1.35;;
25439;SDS011;13365;52.208;5.488;2023-08-07T03:27:56;2.92;;;1.10;;
25439;SDS011;13365;52.208;5.488;2023-08-07T03:30:24;3.00;;;1.35;;
25439;SDS011;13365;52.208;5.488;2023-08-07T03:32:50;9.43;;;1.30;;
25439;SDS011;13365;52.208;5.488;2023-08-07T03:35:15;5.72;;;1.73;;
25439;SDS011;13365;52.208;5.488;2023-08-07T03:37:41;4.28;;;0.88;;
25439;SDS011;13365;52.208;5.488;2023-08-07T03:40:06;9.40;;;1.63;;
25439;SDS011;13365;52.208;5.488;2023-08-07T03:42:32;4.55;;;1.25;;
25439;SDS011;13365;52.208;5.488;2023-08-07T03:45:01;8.18;;;1.17;;
25439;SDS011;13365;52.208;5.488;2023-08-07T03:47:27;5.82;;;1.58;;
25439;SDS011;13365;52.208;5.488;2023-08-07T03:49:53;4.78;;;1.80;;
25439;SDS011;13365;52.208;5.488;2023-08-07T03:52:19;4.30;;;1.25;;
25439;SDS011;13365;52.208;5.488;2023-08-07T03:54:45;8.02;;;1.40;;
25439;SDS011;13365;52.208;5.488;2023-08-07T03:57:11;4.78;;;1.63;;
25439;SDS011;13365;52.208;5.488;2023-08-07T03:59:37;5.47;;;1.10;;
25439;SDS011;13365;52.208;5.488;2023-08-07T04:02:02;7.93;;;1.67;;
25439;SDS011;13365;52.208;5.488;2023-08-07T04:04:28;8.07;;;1.98;;
25439;SDS011;13365;52.208;5.488;2023-08-07T04:06:53;6.10;;;1.52;;
25439;SDS011;13365;52.208;5.488;2023-08-07T04:09:20;9.85;;;2.22;;
25439;SDS011;13365;52.208;5.488;2023-08-07T04:11:46;7.10;;;2.03;;
25439;SDS011;13365;52.208;5.488;2023-08-07T04:14:13;5.65;;;1.20;;
25439;SDS011;13365;52.208;5.488;2023-08-07T04:16:39;3.25;;;1.27;;
25439;SDS011;13365;52.208;5.488;2023-08-07T04:19:04;5.13;;;1.90;;
25439;SDS011;13365;52.208;5.488;2023-08-07T04:21:32;6.88;;;1.45;;
25439;SDS011;13365;52.208;5.488;2023-08-07T04:23:58;8.70;;;2.20;;
25439;SDS011;13365;52.208;5.488;2023-08-07T04:26:26;5.82;;;1.52;;
25439;SDS011;13365;52.208;5.488;2023-08-07T04:28:51;10.10;;;1.70;;
25439;SDS011;13365;52.208;5.488;2023-08-07T04:31:17;9.77;;;1.92;;
25439;SDS011;13365;52.208;5.488;2023-08-07T04:33:43;6.65;;;1.58;;
25439;SDS011;13365;52.208;5.488;2023-08-07T04:36:08;5.80;;;2.28;;
25439;SDS011;13365;52.208;5.488;2023-08-07T04:38:34;7.93;;;1.90;;
25439;SDS011;13365;52.208;5.488;2023-08-07T04:40:59;17.80;;;2.97;;
25439;SDS011;13365;52.208;5.488;2023-08-07T04:43:25;13.85;;;3.03;;
25439;SDS011;13365;52.208;5.488;2023-08-07T04:45:50;7.80;;;2.30;;
25439;SDS011;13365;52.208;5.488;2023-08-07T04:48:16;11.48;;;1.77;;
25439;SDS011;13365;52.208;5.488;2023-08-07T04:50:42;13.50;;;2.33;;
25439;SDS011;13365;52.208;5.488;2023-08-07T04:53:08;10.20;;;2.22;;
25439;SDS011;13365;52.208;5.488;2023-08-07T04:55:34;10.05;;;1.75;;
25439;SDS011;13365;52.208;5.488;2023-08-07T04:57:59;12.05;;;2.58;;
25439;SDS011;13365;52.208;5.488;2023-08-07T05:00:25;8.10;;;2.03;;
25439;SDS011;13365;52.208;5.488;2023-08-07T05:02:52;5.93;;;1.88;;
25439;SDS011;13365;52.208;5.488;2023-08-07T05:05:17;6.80;;;2.40;;
25439;SDS011;13365;52.208;5.488;2023-08-07T05:07:46;7.50;;;1.85;;
25439;SDS011;13365;52.208;5.488;2023-08-07T05:10:12;5.43;;;2.03;;
25439;SDS011;13365;52.208;5.488;2023-08-07T05:12:38;8.55;;;2.25;;
25439;SDS011;13365;52.208;5.488;2023-08-07T05:15:04;8.23;;;2.10;;
25439;SDS011;13365;52.208;5.488;2023-08-07T05:17:30;6.18;;;1.88;;
25439;SDS011;13365;52.208;5.488;2023-08-07T05:19:57;6.82;;;2.00;;
25439;SDS011;13365;52.208;5.488;2023-08-07T05:22:22;9.02;;;2.53;;
25439;SDS011;13365;52.208;5.488;2023-08-07T05:24:48;6.65;;;1.70;;
25439;SDS011;13365;52.208;5.488;2023-08-07T05:27:14;5.72;;;1.83;;
25439;SDS011;13365;52.208;5.488;2023-08-07T05:29:39;2.20;;;1.10;;
25439;SDS011;13365;52.208;5.488;2023-08-07T05:32:11;5.95;;;1.65;;
25439;SDS011;13365;52.208;5.488;2023-08-07T05:34:38;8.27;;;2.58;;
25439;SDS011;13365;52.208;5.488;2023-08-07T05:37:04;9.52;;;2.47;;
25439;SDS011;13365;52.208;5.488;2023-08-07T05:39:31;10.13;;;2.17;;
25439;SDS011;13365;52.208;5.488;2023-08-07T05:41:56;9.27;;;2.65;;
25439;SDS011;13365;52.208;5.488;2023-08-07T05:44:23;4.90;;;2.05;;
25439;SDS011;13365;52.208;5.488;2023-08-07T05:46:49;8.60;;;1.90;;
25439;SDS011;13365;52.208;5.488;2023-08-07T05:49:15;14.75;;;3.20;;
25439;SDS011;13365;52.208;5.488;2023-08-07T05:51:41;9.98;;;4.40;;
25439;SDS011;13365;52.208;5.488;2023-08-07T05:54:06;8.18;;;2.20;;
25439;SDS011;13365;52.208;5.488;2023-08-07T05:56:32;7.60;;;2.00;;
25439;SDS011;13365;52.208;5.488;2023-08-07T05:58:57;7.60;;;2.33;;
25439;SDS011;13365;52.208;5.488;2023-08-07T06:01:23;11.55;;;2.53;;
25439;SDS011;13365;52.208;5.488;2023-08-07T06:03:54;13.23;;;2.63;;
25439;SDS011;13365;52.208;5.488;2023-08-07T06:06:22;12.93;;;3.00;;
25439;SDS011;13365;52.208;5.488;2023-08-07T06:08:48;6.60;;;2.28;;
25439;SDS011;13365;52.208;5.488;2023-08-07T06:11:13;8.48;;;2.20;;
25439;SDS011;13365;52.208;5.488;2023-08-07T06:13:42;8.07;;;2.13;;
25439;SDS011;13365;52.208;5.488;2023-08-07T06:16:08;9.73;;;2.33;;
25439;SDS011;13365;52.208;5.488;2023-08-07T06:18:34;15.63;;;2.63;;
25439;SDS011;13365;52.208;5.488;2023-08-07T06:20:59;8.88;;;2.22;;
25439;SDS011;13365;52.208;5.488;2023-08-07T06:23:25;7.18;;;1.83;;
25439;SDS011;13365;52.208;5.488;2023-08-07T06:25:50;9.85;;;2.05;;
25439;SDS011;13365;52.208;5.488;2023-08-07T06:28:16;5.10;;;1.92;;
25439;SDS011;13365;52.208;5.488;2023-08-07T06:30:42;9.20;;;2.10;;
25439;SDS011;13365;52.208;5.488;2023-08-07T06:33:07;13.32;;;2.30;;
25439;SDS011;13365;52.208;5.488;2023-08-07T06:35:39;15.38;;;2.15;;
25439;SDS011;13365;52.208;5.488;2023-08-07T06:38:05;10.95;;;2.58;;
25439;SDS011;13365;52.208;5.488;2023-08-07T06:40:31;9.90;;;2.28;;
25439;SDS011;13365;52.208;5.488;2023-08-07T06:42:56;9.98;;;2.22;;
25439;SDS011;13365;52.208;5.488;2023-08-07T06:45:22;10.25;;;2.28;;
25439;SDS011;13365;52.208;5.488;2023-08-07T06:47:47;11.32;;;1.95;;
25439;SDS011;13365;52.208;5.488;2023-08-07T06:50:13;8.32;;;1.88;;
25439;SDS011;13365;52.208;5.488;2023-08-07T06:52:39;6.25;;;1.77;;
25439;SDS011;13365;52.208;5.488;2023-08-07T06:55:04;4.15;;;2.30;;
25439;SDS011;13365;52.208;5.488;2023-08-07T06:57:30;3.83;;;1.35;;
25439;SDS011;13365;52.208;5.488;2023-08-07T06:59:56;4.32;;;1.70;;
25439;SDS011;13365;52.208;5.488;2023-08-07T07:02:21;8.80;;;1.63;;
25439;SDS011;13365;52.208;5.488;2023-08-07T07:04:47;8.55;;;1.88;;
25439;SDS011;13365;52.208;5.488;2023-08-07T07:07:12;7.47;;;2.10;;
25439;SDS011;13365;52.208;5.488;2023-08-07T07:09:38;8.35;;;1.60;;
25439;SDS011;13365;52.208;5.488;2023-08-07T07:12:04;7.65;;;2.00;;
25439;SDS011;13365;52.208;5.488;2023-08-07T07:14:29;9.60;;;2.30;;
25439;SDS011;13365;52.208;5.488;2023-08-07T07:16:55;9.30;;;2.92;;
25439;SDS011;13365;52.208;5.488;2023-08-07T07:19:20;7.25;;;1.85;;
25439;SDS011;13365;52.208;5.488;2023-08-07T07:21:46;5.57;;;1.45;;
25439;SDS011;13365;52.208;5.488;2023-08-07T07:24:11;10.55;;;2.28;;
25439;SDS011;13365;52.208;5.488;2023-08-07T07:26:37;11.25;;;1.92;;
25439;SDS011;13365;52.208;5.488;2023-08-07T07:29:02;10.82;;;2.17;;
25439;SDS011;13365;52.208;5.488;2023-08-07T07:31:28;5.15;;;1.80;;
25439;SDS011;13365;52.208;5.488;2023-08-07T07:33:53;4.47;;;1.40;;
25439;SDS011;13365;52.208;5.488;2023-08-07T07:36:19;6.43;;;1.92;;
25439;SDS011;13365;52.208;5.488;2023-08-07T07:38:45;9.40;;;2.30;;
25439;SDS011;13365;52.208;5.488;2023-08-07T07:41:12;9.70;;;1.70;;
25439;SDS011;13365;52.208;5.488;2023-08-07T07:43:38;6.57;;;1.92;;
25439;SDS011;13365;52.208;5.488;2023-08-07T07:46:03;7.95;;;2.60;;
25439;SDS011;13365;52.208;5.488;2023-08-07T07:48:29;9.98;;;2.50;;
25439;SDS011;13365;52.208;5.488;2023-08-07T07:51:01;11.63;;;2.47;;
25439;SDS011;13365;52.208;5.488;2023-08-07T07:53:27;9.52;;;2.38;;
25439;SDS011;13365;52.208;5.488;2023-08-07T07:55:53;7.32;;;1.88;;
25439;SDS011;13365;52.208;5.488;2023-08-07T07:58:19;5.72;;;1.95;;
25439;SDS011;13365;52.208;5.488;2023-08-07T08:00:45;8.63;;;1.88;;
25439;SDS011;13365;52.208;5.488;2023-08-07T08:03:11;8.43;;;2.03;;
25439;SDS011;13365;52.208;5.488;2023-08-07T08:05:37;5.00;;;1.63;;
25439;SDS011;13365;52.208;5.488;2023-08-07T08:08:03;16.88;;;1.98;;
25439;SDS011;13365;52.208;5.488;2023-08-07T08:10:28;7.22;;;2.00;;
25439;SDS011;13365;52.208;5.488;2023-08-07T08:12:55;12.00;;;2.35;;
25439;SDS011;13365;52.208;5.488;2023-08-07T08:15:21;9.15;;;2.20;;
25439;SDS011;13365;52.208;5.488;2023-08-07T08:17:47;5.40;;;1.75;;
25439;SDS011;13365;52.208;5.488;2023-08-07T08:20:13;11.75;;;2.00;;
25439;SDS011;13365;52.208;5.488;2023-08-07T08:22:43;6.45;;;1.95;;
25439;SDS011;13365;52.208;5.488;2023-08-07T08:25:09;14.30;;;1.80;;
25439;SDS011;13365;52.208;5.488;2023-08-07T08:27:36;7.13;;;2.10;;
25439;SDS011;13365;52.208;5.488;2023-08-07T08:30:04;5.43;;;1.65;;
25439;SDS011;13365;52.208;5.488;2023-08-07T08:32:31;9.90;;;1.77;;
25439;SDS011;13365;52.208;5.488;2023-08-07T08:34:57;7.38;;;2.53;;
25439;SDS011;13365;52.208;5.488;2023-08-07T08:37:22;8.20;;;2.03;;
25439;SDS011;13365;52.208;5.488;2023-08-07T08:39:48;9.07;;;2.45;;
25439;SDS011;13365;52.208;5.488;2023-08-07T08:42:14;5.00;;;1.80;;
25439;SDS011;13365;52.208;5.488;2023-08-07T08:44:40;11.85;;;2.28;;
25439;SDS011;13365;52.208;5.488;2023-08-07T08:47:20;8.23;;;1.90;;
25439;SDS011;13365;52.208;5.488;2023-08-07T08:49:48;9.45;;;1.63;;
25439;SDS011;13365;52.208;5.488;2023-08-07T08:52:17;8.75;;;1.95;;
25439;SDS011;13365;52.208;5.488;2023-08-07T08:54:43;4.35;;;1.35;;
25439;SDS011;13365;52.208;5.488;2023-08-07T08:57:09;5.25;;;1.35;;
25439;SDS011;13365;52.208;5.488;2023-08-07T08:59:36;8.40;;;1.42;;
25439;SDS011;13365;52.208;5.488;2023-08-07T09:02:01;7.32;;;1.27;;
25439;SDS011;13365;52.208;5.488;2023-08-07T09:04:28;5.50;;;1.30;;
25439;SDS011;13365;52.208;5.488;2023-08-07T09:06:54;9.77;;;1.40;;
25439;SDS011;13365;52.208;5.488;2023-08-07T09:09:20;2.80;;;1.00;;
25439;SDS011;13365;52.208;5.488;2023-08-07T09:11:46;4.70;;;1.20;;
25439;SDS011;13365;52.208;5.488;2023-08-07T09:14:17;5.45;;;1.30;;
25439;SDS011;13365;52.208;5.488;2023-08-07T09:16:48;6.43;;;1.40;;
25439;SDS011;13365;52.208;5.488;2023-08-07T09:19:14;9.77;;;1.25;;
25439;SDS011;13365;52.208;5.488;2023-08-07T09:21:40;10.15;;;1.70;;
25439;SDS011;13365;52.208;5.488;2023-08-07T09:24:06;7.63;;;1.60;;
25439;SDS011;13365;52.208;5.488;2023-08-07T09:26:31;5.32;;;1.05;;
25439;SDS011;13365;52.208;5.488;2023-08-07T09:28:58;5.70;;;1.13;;
25439;SDS011;13365;52.208;5.488;2023-08-07T09:31:24;5.18;;;1.30;;
25439;SDS011;13365;52.208;5.488;2023-08-07T09:33:54;4.72;;;1.35;;
25439;SDS011;13365;52.208;5.488;2023-08-07T09:36:19;5.55;;;1.58;;
25439;SDS011;13365;52.208;5.488;2023-08-07T09:38:51;6.20;;;1.17;;
25439;SDS011;13365;52.208;5.488;2023-08-07T09:41:17;4.85;;;1.30;;
25439;SDS011;13365;52.208;5.488;2023-08-07T09:43:44;6.50;;;1.20;;
25439;SDS011;13365;52.208;5.488;2023-08-07T09:46:09;3.30;;;1.48;;
25439;SDS011;13365;52.208;5.488;2023-08-07T09:48:43;8.25;;;1.70;;
25439;SDS011;13365;52.208;5.488;2023-08-07T09:51:09;8.27;;;1.23;;
25439;SDS011;13365;52.208;5.488;2023-08-07T09:53:35;4.65;;;1.40;;
25439;SDS011;13365;52.208;5.488;2023-08-07T09:56:01;5.55;;;1.20;;
25439;SDS011;13365;52.208;5.488;2023-08-07T09:58:27;5.60;;;1.60;;
25439;SDS011;13365;52.208;5.488;2023-08-07T10:00:53;7.18;;;1.58;;
25439;SDS011;13365;52.208;5.488;2023-08-07T10:03:20;6.60;;;1.75;;
25439;SDS011;13365;52.208;5.488;2023-08-07T10:05:48;7.05;;;1.10;;
25439;SDS011;13365;52.208;5.488;2023-08-07T10:08:15;10.32;;;1.17;;
25439;SDS011;13365;52.208;5.488;2023-08-07T10:10:41;6.35;;;1.45;;
25439;SDS011;13365;52.208;5.488;2023-08-07T10:13:06;5.05;;;1.10;;
25439;SDS011;13365;52.208;5.488;2023-08-07T10:15:33;4.47;;;1.27;;
25439;SDS011;13365;52.208;5.488;2023-08-07T10:18:01;4.50;;;1.50;;
25439;SDS011;13365;52.208;5.488;2023-08-07T10:20:28;10.73;;;1.70;;
25439;SDS011;13365;52.208;5.488;2023-08-07T10:22:57;5.20;;;1.15;;
25439;SDS011;13365;52.208;5.488;2023-08-07T10:25:27;3.45;;;1.20;;
25439;SDS011;13365;52.208;5.488;2023-08-07T10:27:54;7.22;;;1.52;;
25439;SDS011;13365;52.208;5.488;2023-08-07T10:30:21;8.52;;;1.95;;
25439;SDS011;13365;52.208;5.488;2023-08-07T10:32:48;7.47;;;1.50;;
25439;SDS011;13365;52.208;5.488;2023-08-07T10:35:29;5.28;;;1.27;;
25439;SDS011;13365;52.208;5.488;2023-08-07T10:38:04;5.07;;;1.20;;
25439;SDS011;13365;52.208;5.488;2023-08-07T10:43:23;8.48;;;1.58;;
25439;SDS011;13365;52.208;5.488;2023-08-07T10:45:49;8.48;;;2.13;;
25439;SDS011;13365;52.208;5.488;2023-08-07T10:48:17;2.88;;;1.10;;
25439;SDS011;13365;52.208;5.488;2023-08-07T10:50:50;5.53;;;1.15;;
25439;SDS011;13365;52.208;5.488;2023-08-07T10:53:41;6.65;;;1.42;;
25439;SDS011;13365;52.208;5.488;2023-08-07T10:56:10;6.57;;;1.98;;
25439;SDS011;13365;52.208;5.488;2023-08-07T10:58:40;4.75;;;1.13;;
25439;SDS011;13365;52.208;5.488;2023-08-07T11:04:00;7.47;;;1.13;;
25439;SDS011;13365;52.208;5.488;2023-08-07T11:06:38;8.85;;;1.80;;
25439;SDS011;13365;52.208;5.488;2023-08-07T11:09:06;3.78;;;1.45;;
25439;SDS011;13365;52.208;5.488;2023-08-07T11:11:38;8.82;;;1.40;;
25439;SDS011;13365;52.208;5.488;2023-08-07T11:14:26;6.90;;;1.50;;
25439;SDS011;13365;52.208;5.488;2023-08-07T11:16:50;5.75;;;1.45;;
25439;SDS011;13365;52.208;5.488;2023-08-07T11:19:17;8.55;;;1.27;;
25439;SDS011;13365;52.208;5.488;2023-08-07T11:21:44;10.23;;;1.90;;
25439;SDS011;13365;52.208;5.488;2023-08-07T11:24:13;4.80;;;1.60;;
25439;SDS011;13365;52.208;5.488;2023-08-07T11:26:42;6.80;;;1.50;;
25439;SDS011;13365;52.208;5.488;2023-08-07T11:29:08;11.90;;;2.75;;
25439;SDS011;13365;52.208;5.488;2023-08-07T11:31:34;5.55;;;1.23;;
25439;SDS011;13365;52.208;5.488;2023-08-07T11:34:00;3.80;;;1.40;;
25439;SDS011;13365;52.208;5.488;2023-08-07T11:36:27;4.43;;;1.17;;
25439;SDS011;13365;52.208;5.488;2023-08-07T11:38:54;9.73;;;1.88;;
25439;SDS011;13365;52.208;5.488;2023-08-07T11:41:19;2.67;;;1.23;;
25439;SDS011;13365;52.208;5.488;2023-08-07T11:43:45;5.72;;;1.58;;
25439;SDS011;13365;52.208;5.488;2023-08-07T11:46:11;7.90;;;1.45;;
25439;SDS011;13365;52.208;5.488;2023-08-07T11:48:38;7.75;;;1.55;;
25439;SDS011;13365;52.208;5.488;2023-08-07T11:51:05;5.43;;;1.42;;
25439;SDS011;13365;52.208;5.488;2023-08-07T11:53:32;5.80;;;1.45;;
25439;SDS011;13365;52.208;5.488;2023-08-07T11:56:00;5.53;;;1.52;;
25439;SDS011;13365;52.208;5.488;2023-08-07T11:58:28;3.80;;;0.93;;
25439;SDS011;13365;52.208;5.488;2023-08-07T12:01:02;2.65;;;1.00;;
25439;SDS011;13365;52.208;5.488;2023-08-07T12:03:29;6.15;;;0.95;;
25439;SDS011;13365;52.208;5.488;2023-08-07T12:05:57;5.90;;;1.23;;
25439;SDS011;13365;52.208;5.488;2023-08-07T12:08:24;3.47;;;1.10;;
25439;SDS011;13365;52.208;5.488;2023-08-07T12:10:55;4.78;;;0.95;;
25439;SDS011;13365;52.208;5.488;2023-08-07T12:13:24;4.38;;;1.10;;
25439;SDS011;13365;52.208;5.488;2023-08-07T12:15:53;4.05;;;1.08;;
25439;SDS011;13365;52.208;5.488;2023-08-07T12:18:20;3.33;;;1.00;;
25439;SDS011;13365;52.208;5.488;2023-08-07T12:20:47;2.08;;;0.88;;
25439;SDS011;13365;52.208;5.488;2023-08-07T12:23:15;9.80;;;1.23;;
25439;SDS011;13365;52.208;5.488;2023-08-07T12:25:44;12.10;;;1.35;;
25439;SDS011;13365;52.208;5.488;2023-08-07T12:28:10;3.22;;;0.95;;
25439;SDS011;13365;52.208;5.488;2023-08-07T12:30:36;2.78;;;0.98;;
25439;SDS011;13365;52.208;5.488;2023-08-07T12:33:02;2.75;;;1.02;;
25439;SDS011;13365;52.208;5.488;2023-08-07T12:35:29;5.03;;;1.48;;
25439;SDS011;13365;52.208;5.488;2023-08-07T12:37:55;3.70;;;1.10;;
25439;SDS011;13365;52.208;5.488;2023-08-07T12:40:21;5.60;;;1.27;;
25439;SDS011;13365;52.208;5.488;2023-08-07T12:42:48;3.20;;;0.85;;
25439;SDS011;13365;52.208;5.488;2023-08-07T12:45:14;2.10;;;0.80;;
25439;SDS011;13365;52.208;5.488;2023-08-07T12:47:40;3.30;;;0.88;;
25439;SDS011;13365;52.208;5.488;2023-08-07T12:50:07;4.25;;;1.20;;
25439;SDS011;13365;52.208;5.488;2023-08-07T12:52:33;3.45;;;1.00;;
25439;SDS011;13365;52.208;5.488;2023-08-07T12:54:59;4.63;;;1.17;;
25439;SDS011;13365;52.208;5.488;2023-08-07T12:57:24;5.65;;;1.30;;
25439;SDS011;13365;52.208;5.488;2023-08-07T12:59:50;8.73;;;1.23;;
25439;SDS011;13365;52.208;5.488;2023-08-07T13:02:16;3.08;;;1.00;;
25439;SDS011;13365;52.208;5.488;2023-08-07T13:04:41;7.38;;;0.85;;
25439;SDS011;13365;52.208;5.488;2023-08-07T13:07:07;5.13;;;0.85;;
25439;SDS011;13365;52.208;5.488;2023-08-07T13:09:32;4.07;;;0.80;;
25439;SDS011;13365;52.208;5.488;2023-08-07T13:11:58;3.55;;;1.10;;
25439;SDS011;13365;52.208;5.488;2023-08-07T13:14:24;4.47;;;0.90;;
25439;SDS011;13365;52.208;5.488;2023-08-07T13:16:50;6.28;;;1.38;;
25439;SDS011;13365;52.208;5.488;2023-08-07T13:19:16;2.63;;;0.70;;
25439;SDS011;13365;52.208;5.488;2023-08-07T13:21:42;3.67;;;0.93;;
25439;SDS011;13365;52.208;5.488;2023-08-07T13:24:07;2.67;;;0.85;;
25439;SDS011;13365;52.208;5.488;2023-08-07T13:26:33;1.45;;;0.80;;
25439;SDS011;13365;52.208;5.488;2023-08-07T13:28:58;2.88;;;1.00;;
25439;SDS011;13365;52.208;5.488;2023-08-07T13:31:25;3.40;;;1.33;;
25439;SDS011;13365;52.208;5.488;2023-08-07T13:33:50;4.00;;;1.23;;
25439;SDS011;13365;52.208;5.488;2023-08-07T13:36:16;3.97;;;1.00;;
25439;SDS011;13365;52.208;5.488;2023-08-07T13:38:41;3.15;;;0.85;;
25439;SDS011;13365;52.208;5.488;2023-08-07T13:41:08;5.38;;;1.00;;
25439;SDS011;13365;52.208;5.488;2023-08-07T13:43:33;5.65;;;1.05;;
25439;SDS011;13365;52.208;5.488;2023-08-07T13:45:59;3.63;;;0.90;;
25439;SDS011;13365;52.208;5.488;2023-08-07T13:48:24;3.05;;;1.10;;
25439;SDS011;13365;52.208;5.488;2023-08-07T13:50:53;3.42;;;0.82;;
25439;SDS011;13365;52.208;5.488;2023-08-07T13:53:18;4.70;;;1.30;;
25439;SDS011;13365;52.208;5.488;2023-08-07T13:55:48;2.55;;;0.88;;
25439;SDS011;13365;52.208;5.488;2023-08-07T13:58:14;3.88;;;0.68;;
25439;SDS011;13365;52.208;5.488;2023-08-07T14:00:40;2.80;;;1.30;;
25439;SDS011;13365;52.208;5.488;2023-08-07T14:03:07;5.82;;;1.05;;
25439;SDS011;13365;52.208;5.488;2023-08-07T14:05:33;3.30;;;1.05;;
25439;SDS011;13365;52.208;5.488;2023-08-07T14:07:59;2.55;;;0.88;;
25439;SDS011;13365;52.208;5.488;2023-08-07T14:10:25;3.53;;;0.73;;
25439;SDS011;13365;52.208;5.488;2023-08-07T14:12:50;2.30;;;0.90;;
25439;SDS011;13365;52.208;5.488;2023-08-07T14:15:16;3.72;;;0.77;;
25439;SDS011;13365;52.208;5.488;2023-08-07T14:17:41;2.38;;;0.80;;
25439;SDS011;13365;52.208;5.488;2023-08-07T14:20:07;3.28;;;1.00;;
25439;SDS011;13365;52.208;5.488;2023-08-07T14:22:33;2.63;;;0.60;;
25439;SDS011;13365;52.208;5.488;2023-08-07T14:25:01;3.83;;;0.77;;
25439;SDS011;13365;52.208;5.488;2023-08-07T14:27:28;2.63;;;0.90;;
25439;SDS011;13365;52.208;5.488;2023-08-07T14:29:53;10.05;;;1.20;;
25439;SDS011;13365;52.208;5.488;2023-08-07T14:32:19;2.30;;;1.10;;
25439;SDS011;13365;52.208;5.488;2023-08-07T14:34:45;2.42;;;1.00;;
25439;SDS011;13365;52.208;5.488;2023-08-07T14:37:12;3.30;;;0.82;;
25439;SDS011;13365;52.208;5.488;2023-08-07T14:39:38;2.78;;;0.82;;
25439;SDS011;13365;52.208;5.488;2023-08-07T14:42:03;1.50;;;0.95;;
25439;SDS011;13365;52.208;5.488;2023-08-07T14:44:29;5.28;;;1.17;;
25439;SDS011;13365;52.208;5.488;2023-08-07T14:46:54;4.15;;;1.02;;
25439;SDS011;13365;52.208;5.488;2023-08-07T14:49:20;5.40;;;0.95;;
25439;SDS011;13365;52.208;5.488;2023-08-07T14:51:46;6.97;;;1.10;;